LRODLRCL

Guest
Details From LROD - ORADEA
To LRCL - CLUJ NAPOCA
Flight Number -
Tags generated
Created
Modified
Stats Distance 75 nm / 138 km
Max Altitude 3,000 ft / 914 m
Waypoints 3
Social Downloads 1
Likes 0
Share VATSIM

Download

Looking for another format? Having issues loading an existing format? Contact us
Advertisement - Login to hide

Notes

Basic altitude profile: - Ascent Rate: 2500ft/min - Ascent Speed: 250kts - Cruise Altitude: 35000ft - Cruise Speed: 420kts - Descent Rate: 1500ft/min - Descent Speed: 250kts Options: - Use NATs: no - Use PACOTS: no - Use low airways: yes - Use high airways: no

Route

LROD EREDI LRCL

ID Type Via Altitude Latitude Longitude Leg Dist Tot Dist Heading (true) Name
O LROD APT - 0 ft / 0 m 47.02532˚ 21.90241˚ - 0 nm - ORADEA
EREDI FIX - 3,000 ft / 914 m 46.86304˚ 23.36004˚ 60 nm 60 nm 99° / 100° -
O LRCL APT - 0 ft / 0 m 46.78511˚ 23.68617˚ 14 nm 74 nm 109° / 109° CLUJ NAPOCA

Altitude Profile

Advertisement - Login to hide

LROD

Details ICAO LROD (OMR)
Name ORADEA
Region Romania
Timezone Europe/Bucharest (UTC+2.0)
Stats Elevation 465 ft / 142 m (AMSL)
Location 47.025323° 21.902410°
Runways 1
Magnetic Variation 5.238° E

METAR

LROD 181830Z 36008KT CAVOK 01/M03 Q1022

Decode

TAF

Not found

Departure Runways

ID Width Length Bearing (true) Bearing (mag) Surface Threshold Offset Overrun Length
01 98 ft / 30 m 5,862 ft / 1,787 m 11.12° 5.88° Concrete 0 ft / 0 m 0 ft / 0 m
19 98 ft / 30 m 5,862 ft / 1,787 m 191.13° 185.89° Concrete 0 ft / 0 m 0 ft / 0 m

LRCL

Details ICAO LRCL (CLJ)
Name CLUJ NAPOCA
Region Romania
Timezone Europe/Bucharest (UTC+2.0)
Stats Elevation 1,036 ft / 316 m (AMSL)
Location 46.785109° 23.686166°
Runways 1
Magnetic Variation 5.540° E

METAR

LRCL 181830Z 27007KT 9999 FEW038 SCT065 00/M03 Q1020

Decode

TAF

Not found

Destination Runways

ID Width Length Bearing (true) Bearing (mag) Surface Threshold Offset Overrun Length
08 98 ft / 30 m 6,045 ft / 1,842 m 78.96° 73.42° Concrete 0 ft / 0 m 0 ft / 0 m
26 98 ft / 30 m 6,045 ft / 1,842 m 258.98° 253.44° Concrete 0 ft / 0 m 0 ft / 0 m

Approach Navaids

Runway Type Ident Frequency Range Bearing (true) Bearing (mag) Slope Elevation
26 Localiser ICL 110.30 MHz 18 nm / 33 km 258.84° 253.30° - 1,025 ft / 312 m (AMSL)
26 Glidescope ICL 110.30 MHz 10 nm / 19 km 258.97° 253.43° 3.20° 1,025 ft / 312 m (AMSL)
26 DME ICL 110.30 MHz 18 nm / 33 km - - - 1,100 ft / 335 m (AMSL)

Popular Alternatives